Time;durP1;ratioP1;P1;durP2;ratioP2;P2;SDS_P1;SDS_P2;PMS_P1;PMS_P2;Temp;Humidity;BMP_temperature;BMP_pressure;BME280_temperature;BME280_humidity;BME280_pressure;Samples;Min_cycle;Max_cycle;Signal;HPM_P1;HPM_P2
2024/03/07 00:00:14;;;;;;;;;;;;;;;7.45;68.10;96427.78;7399958;19;1798;-69
2024/03/07 00:02:45;;;;;;;;;;;;;;;7.41;68.09;96422.69;7400152;19;960;-65
2024/03/07 00:05:15;;;;;;;;;;;;;;;7.48;68.16;96419.00;7399566;19;1124;-67
2024/03/07 00:07:44;;;;;;;;;;;;;;;7.40;68.29;96427.03;7399468;19;1137;-71
2024/03/07 00:10:15;;;;;;;;;;;;;;;7.47;67.68;96417.31;7396327;19;1159;-71
2024/03/07 00:12:43;;;;;;;;;;;;;;;7.42;68.54;96413.97;7399381;19;1104;-65
2024/03/07 00:15:12;;;;;;;;;;;;;;;7.31;69.07;96412.53;7399579;19;832;-70
2024/03/07 00:17:41;;;;;;;;;;;;;;;7.30;69.25;96409.94;7399721;19;1050;-70
2024/03/07 00:20:14;;;;;;;;;;;;;;;7.36;68.85;96412.41;7398996;19;1076;-72
2024/03/07 00:22:42;;;;;;;;;;;;;;;7.40;68.19;96408.81;7399061;19;1115;-70
2024/03/07 00:25:14;;;;;;;;;;;;;;;7.37;68.42;96405.44;7399177;19;1830;-67
2024/03/07 00:27:45;;;;;;;;;;;;;;;7.34;68.72;96398.56;7398902;19;1129;-66
2024/03/07 00:30:14;;;;;;;;;;;;;;;7.39;68.16;96404.50;7399280;19;1019;-65
2024/03/07 00:32:42;;;;;;;;;;;;;;;7.29;68.36;96395.25;7398746;19;1076;-66
2024/03/07 00:35:13;;;;;;;;;;;;;;;7.27;68.67;96402.22;7396492;19;1906;-71
2024/03/07 00:37:42;;;;;;;;;;;;;;;7.25;68.77;96396.22;7398985;19;1005;-69
2024/03/07 00:40:11;;;;;;;;;;;;;;;7.14;69.15;96394.78;7398769;19;1009;-67
2024/03/07 00:42:39;;;;;;;;;;;;;;;7.15;69.26;96390.41;7398600;19;1897;-65
2024/03/07 00:45:09;;;;;;;;;;;;;;;7.17;69.30;96383.41;7398461;19;1837;-68
2024/03/07 00:47:38;;;;;;;;;;;;;;;7.24;69.14;96387.56;7398126;19;979;-68
2024/03/07 00:50:08;;;;;;;;;;;;;;;7.28;69.69;96388.31;7398509;19;1047;-69
2024/03/07 00:52:39;;;;;;;;;;;;;;;7.37;68.97;96384.63;7397940;19;1123;-68
2024/03/07 00:55:09;;;;;;;;;;;;;;;7.38;68.74;96378.53;7395824;19;1853;-65
2024/03/07 00:57:38;;;;;;;;;;;;;;;7.44;68.53;96378.34;7398241;19;1026;-70
2024/03/07 01:00:11;;;;;;;;;;;;;;;7.47;68.32;96386.09;7398067;19;1024;-70
2024/03/07 01:02:43;;;;;;;;;;;;;;;7.45;68.42;96386.13;7397625;19;1025;-65
2024/03/07 01:05:13;;;;;;;;;;;;;;;7.19;68.70;96381.63;7397963;19;1047;-71
2024/03/07 01:07:45;;;;;;;;;;;;;;;7.19;69.04;96374.66;7397507;19;935;-67
2024/03/07 01:10:14;;;;;;;;;;;;;;;7.22;69.33;96381.53;7395466;19;1563;-70
2024/03/07 01:12:43;;;;;;;;;;;;;;;7.19;69.05;96379.88;7397795;19;1039;-67
2024/03/07 01:15:12;;;;;;;;;;;;;;;7.06;69.59;96384.56;7395350;19;1842;-72
2024/03/07 01:17:40;;;;;;;;;;;;;;;7.10;69.42;96380.13;7397445;19;804;-70
2024/03/07 01:20:12;;;;;;;;;;;;;;;7.16;69.11;96381.69;7395934;19;1024;-65
2024/03/07 01:22:41;;;;;;;;;;;;;;;7.28;68.60;96390.91;7396957;19;1064;-71
2024/03/07 01:25:12;;;;;;;;;;;;;;;7.35;68.24;96391.63;7397339;19;1013;-69
2024/03/07 01:27:41;;;;;;;;;;;;;;;7.42;67.95;96388.81;7396771;19;1126;-66
2024/03/07 01:30:10;;;;;;;;;;;;;;;7.50;67.84;96395.53;7396992;19;1941;-67
2024/03/07 01:32:39;;;;;;;;;;;;;;;7.55;67.31;96394.50;7396662;19;1033;-70
2024/03/07 01:35:09;;;;;;;;;;;;;;;7.44;66.90;96392.19;7395210;19;1911;-68
2024/03/07 01:37:38;;;;;;;;;;;;;;;7.42;66.73;96393.16;7396854;19;1021;-66
2024/03/07 01:40:07;;;;;;;;;;;;;;;7.41;66.68;96394.88;7396641;19;1918;-66
2024/03/07 01:42:38;;;;;;;;;;;;;;;7.24;66.90;96392.75;7396557;19;864;-72
2024/03/07 01:45:08;;;;;;;;;;;;;;;7.10;67.53;96389.69;7396158;19;1013;-70
2024/03/07 01:47:37;;;;;;;;;;;;;;;7.04;67.54;96398.47;7396155;19;1025;-66
2024/03/07 01:50:06;;;;;;;;;;;;;;;6.94;67.56;96390.94;7395988;19;1092;-66
2024/03/07 01:52:34;;;;;;;;;;;;;;;6.72;68.64;96388.03;7396397;19;996;-66
2024/03/07 01:55:03;;;;;;;;;;;;;;;6.79;68.19;96386.97;7395056;19;1834;-67
2024/03/07 01:57:32;;;;;;;;;;;;;;;6.57;68.56;96392.69;7396148;19;1795;-71
2024/03/07 02:00:05;;;;;;;;;;;;;;;6.54;68.77;96386.75;7395640;19;1117;-66
2024/03/07 02:02:34;;;;;;;;;;;;;;;6.42;69.78;96378.31;7395709;19;1227;-67
2024/03/07 02:05:03;;;;;;;;;;;;;;;6.33;70.11;96383.75;7395829;19;1897;-65
2024/03/07 02:07:31;;;;;;;;;;;;;;;6.26;70.44;96375.25;7395431;19;1043;-68
2024/03/07 02:10:03;;;;;;;;;;;;;;;6.22;70.72;96377.94;7393750;19;1186;-71
2024/03/07 02:12:32;;;;;;;;;;;;;;;6.27;70.76;96373.50;7395909;19;1012;-67
2024/03/07 02:15:03;;;;;;;;;;;;;;;6.28;70.65;96368.28;7394081;19;1845;-72
2024/03/07 02:17:32;;;;;;;;;;;;;;;6.22;70.66;96370.16;7395672;19;1002;-68
2024/03/07 02:20:00;;;;;;;;;;;;;;;6.21;70.79;96376.25;7395350;19;1822;-70
2024/03/07 02:22:31;;;;;;;;;;;;;;;6.28;70.99;96373.47;7395478;19;1804;-65
2024/03/07 02:24:59;;;;;;;;;;;;;;;6.31;70.57;96386.41;7394956;19;1068;-69
2024/03/07 02:27:28;;;;;;;;;;;;;;;6.34;70.48;96377.66;7395015;19;1083;-69
2024/03/07 02:29:57;;;;;;;;;;;;;;;6.37;70.55;96374.13;7393205;19;1045;-68
2024/03/07 02:32:26;;;;;;;;;;;;;;;6.44;70.29;96368.75;7392329;19;1052;-70
2024/03/07 02:34:55;;;;;;;;;;;;;;;6.44;70.08;96373.97;7394096;19;1833;-69
2024/03/07 02:37:23;;;;;;;;;;;;;;;6.47;69.95;96370.44;7395134;19;1051;-67
2024/03/07 02:39:54;;;;;;;;;;;;;;;6.46;69.88;96371.31;7394892;19;1838;-68
2024/03/07 02:42:23;;;;;;;;;;;;;;;6.38;69.97;96363.72;7394545;19;1159;-67
2024/03/07 02:48:02;;;;;;;;;;;;;;;6.30;70.72;96368.25;7392062;19;1879;-67
2024/03/07 02:50:30;;;;;;;;;;;;;;;6.21;70.91;96366.72;7394379;19;1068;-65
2024/03/07 02:52:59;;;;;;;;;;;;;;;6.17;71.54;96367.69;7394366;19;1104;-70
2024/03/07 02:55:30;;;;;;;;;;;;;;;6.21;71.07;96371.06;7393187;19;1929;-72
2024/03/07 02:57:58;;;;;;;;;;;;;;;6.15;71.27;96366.84;7394782;19;1004;-65
2024/03/07 03:00:29;;;;;;;;;;;;;;;6.04;71.84;96367.09;7394381;19;2021;-67
2024/03/07 03:02:58;;;;;;;;;;;;;;;5.91;72.26;96375.16;7394428;19;984;-70
2024/03/07 03:05:27;;;;;;;;;;;;;;;5.86;72.59;96369.19;7393927;19;1001;-65
2024/03/07 03:07:55;;;;;;;;;;;;;;;5.96;72.58;96375.03;7393888;19;1060;-70
2024/03/07 03:10:26;;;;;;;;;;;;;;;5.91;72.71;96374.28;7391984;19;1820;-71
2024/03/07 03:12:59;;;;;;;;;;;;;;;6.00;72.54;96368.88;7394203;19;1045;-73
2024/03/07 03:15:27;;;;;;;;;;;;;;;5.99;72.26;96374.13;7392184;19;1849;-69
2024/03/07 03:17:57;;;;;;;;;;;;;;;5.88;72.61;96370.03;7393604;19;1021;-71
2024/03/07 03:20:33;;;;;;;;;;;;;;;5.77;72.74;96370.25;7393492;19;974;-68
2024/03/07 03:23:02;;;;;;;;;;;;;;;5.83;73.26;96364.06;7393540;19;1104;-69
2024/03/07 03:25:32;;;;;;;;;;;;;;;5.84;72.84;96373.56;7393478;19;1006;-70
2024/03/07 03:28:04;;;;;;;;;;;;;;;5.92;72.51;96375.97;7393905;19;1023;-70
2024/03/07 03:30:32;;;;;;;;;;;;;;;5.99;72.22;96382.75;7393875;19;1024;-70
2024/03/07 03:33:01;;;;;;;;;;;;;;;6.05;72.07;96381.81;7393229;19;1010;-66
2024/03/07 03:35:29;;;;;;;;;;;;;;;6.18;71.85;96377.19;7392111;19;1861;-66
2024/03/07 03:37:57;;;;;;;;;;;;;;;6.25;70.88;96370.94;7393346;19;1820;-66
2024/03/07 03:40:26;;;;;;;;;;;;;;;6.15;70.62;96375.50;7393238;19;1898;-70
2024/03/07 03:42:54;;;;;;;;;;;;;;;6.11;70.80;96368.66;7393379;19;984;-70
2024/03/07 03:45:25;;;;;;;;;;;;;;;6.07;71.03;96372.22;7400043;19;1919;-71
2024/03/07 03:47:54;;;;;;;;;;;;;;;6.02;70.85;96374.06;7400665;19;1047;-69
2024/03/07 03:50:23;;;;;;;;;;;;;;;5.98;71.51;96368.06;7400577;19;951;-72
2024/03/07 03:52:52;;;;;;;;;;;;;;;5.94;71.25;96372.47;7400278;19;1819;-66
2024/03/07 03:55:20;;;;;;;;;;;;;;;6.03;71.18;96371.44;7399189;19;1838;-67
2024/03/07 03:57:49;;;;;;;;;;;;;;;6.05;71.24;96376.63;7400239;19;1953;-68
2024/03/07 04:00:18;;;;;;;;;;;;;;;6.06;71.22;96379.16;7400151;19;1963;-65
2024/03/07 04:02:49;;;;;;;;;;;;;;;6.12;70.56;96377.31;7400113;19;1787;-70
2024/03/07 04:05:19;;;;;;;;;;;;;;;6.09;70.62;96378.25;7399694;19;1018;-69
2024/03/07 04:10:42;;;;;;;;;;;;;;;6.02;71.18;96379.25;7395988;19;1086;-66
2024/03/07 04:13:11;;;;;;;;;;;;;;;6.15;70.61;96377.25;7399385;19;1118;-69
2024/03/07 04:15:39;;;;;;;;;;;;;;;6.21;70.31;96382.31;7398136;19;1846;-66
2024/03/07 04:18:10;;;;;;;;;;;;;;;6.25;70.11;96378.75;7399662;19;1908;-65
2024/03/07 04:20:39;;;;;;;;;;;;;;;6.14;70.17;96376.38;7399108;19;1072;-71
2024/03/07 04:23:07;;;;;;;;;;;;;;;6.18;70.25;96374.59;7399157;19;1136;-73
2024/03/07 04:25:35;;;;;;;;;;;;;;;6.14;69.91;96373.78;7399210;19;1837;-70
2024/03/07 04:28:05;;;;;;;;;;;;;;;6.14;70.30;96367.75;7398910;19;1115;-68
2024/03/07 04:30:33;;;;;;;;;;;;;;;6.05;70.54;96371.44;7398699;19;1116;-69
2024/03/07 04:33:02;;;;;;;;;;;;;;;5.99;70.42;96363.72;7398686;19;1053;-72
2024/03/07 04:35:33;;;;;;;;;;;;;;;5.88;70.74;96370.03;7397755;19;1842;-68
2024/03/07 04:38:02;;;;;;;;;;;;;;;5.90;70.80;96368.22;7398526;19;1024;-72
2024/03/07 04:40:30;;;;;;;;;;;;;;;5.73;71.44;96365.16;7398432;19;1077;-67
2024/03/07 04:42:59;;;;;;;;;;;;;;;5.74;71.49;96367.72;7398767;19;914;-68
2024/03/07 04:45:27;;;;;;;;;;;;;;;5.57;71.91;96363.72;7398843;19;1019;-67
2024/03/07 04:47:56;;;;;;;;;;;;;;;5.55;72.17;96362.94;7398262;19;1119;-66
2024/03/07 04:50:24;;;;;;;;;;;;;;;5.59;71.81;96365.44;7398518;19;1810;-64
2024/03/07 04:52:55;;;;;;;;;;;;;;;5.55;72.11;96373.31;7398910;19;1656;-69
2024/03/07 04:55:24;;;;;;;;;;;;;;;5.53;71.93;96369.88;7395010;19;1841;-71
2024/03/07 04:57:52;;;;;;;;;;;;;;;5.56;71.84;96375.00;7398361;19;1004;-64
2024/03/07 05:00:21;;;;;;;;;;;;;;;5.55;71.98;96369.84;7397766;19;1033;-68
2024/03/07 05:02:51;;;;;;;;;;;;;;;5.59;72.13;96374.09;7398117;19;1778;-67
2024/03/07 05:05:22;;;;;;;;;;;;;;;5.62;71.20;96373.16;7398096;19;1914;-69
2024/03/07 05:07:52;;;;;;;;;;;;;;;5.55;71.61;96372.44;7397611;19;1045;-66
2024/03/07 05:10:24;;;;;;;;;;;;;;;5.66;71.47;96375.66;7395634;19;1199;-69
2024/03/07 05:12:53;;;;;;;;;;;;;;;5.66;71.09;96380.00;7397325;19;1345;-68
2024/03/07 05:15:25;;;;;;;;;;;;;;;5.59;70.84;96381.00;7396352;19;1842;-68
2024/03/07 05:17:56;;;;;;;;;;;;;;;5.66;70.61;96387.81;7397266;19;1080;-66
2024/03/07 05:20:24;;;;;;;;;;;;;;;5.72;70.52;96392.84;7397126;19;1085;-70
2024/03/07 05:22:53;;;;;;;;;;;;;;;5.72;70.46;96389.41;7397033;19;1041;-67
2024/03/07 05:25:24;;;;;;;;;;;;;;;5.73;70.71;96391.97;7396907;19;1054;-66
2024/03/07 05:27:53;;;;;;;;;;;;;;;5.75;70.10;96387.59;7396886;19;1096;-67
2024/03/07 05:30:23;;;;;;;;;;;;;;;5.76;70.12;96396.22;7396785;19;1116;-66
2024/03/07 05:32:51;;;;;;;;;;;;;;;5.76;70.49;96386.72;7397190;19;1036;-70
2024/03/07 05:35:20;;;;;;;;;;;;;;;5.77;70.42;96388.41;7396356;19;1837;-63
2024/03/07 05:37:50;;;;;;;;;;;;;;;5.81;70.29;96391.81;7397090;19;1064;-68
2024/03/07 05:40:19;;;;;;;;;;;;;;;5.79;70.15;96394.44;7396543;19;1021;-69
2024/03/07 05:42:50;;;;;;;;;;;;;;;5.78;70.55;96386.69;7396524;19;1128;-68
2024/03/07 05:45:18;;;;;;;;;;;;;;;5.66;70.97;96380.84;7396798;19;1024;-67
2024/03/07 05:47:47;;;;;;;;;;;;;;;5.51;71.77;96387.19;7396745;19;1873;-68
2024/03/07 05:50:16;;;;;;;;;;;;;;;5.52;72.28;96385.47;7396319;19;1096;-67
2024/03/07 05:52:45;;;;;;;;;;;;;;;5.55;72.31;96394.06;7396513;19;1008;-71
2024/03/07 05:55:15;;;;;;;;;;;;;;;5.52;72.15;96399.31;7395493;19;1861;-70
2024/03/07 05:57:44;;;;;;;;;;;;;;;5.63;72.61;96400.84;7395973;19;1119;-71
2024/03/07 06:00:26;;;;;;;;;;;;;;;5.76;71.60;96404.88;7396589;19;1670;-71
2024/03/07 06:05:50;;;;;;;;;;;;;;;5.81;71.30;96400.44;7395161;19;836;-67
2024/03/07 06:08:19;;;;;;;;;;;;;;;5.75;70.88;96397.13;7395126;19;1899;-71
2024/03/07 06:10:50;;;;;;;;;;;;;;;5.69;70.88;96400.72;7394050;19;1274;-67
2024/03/07 06:13:19;;;;;;;;;;;;;;;5.65;70.64;96404.25;7395564;19;1049;-69
2024/03/07 06:15:50;;;;;;;;;;;;;;;5.69;70.86;96404.16;7394466;19;1846;-73
2024/03/07 06:18:19;;;;;;;;;;;;;;;5.62;70.56;96402.56;7395232;19;1786;-67
2024/03/07 06:20:48;;;;;;;;;;;;;;;5.51;70.58;96407.97;7395085;19;1033;-71
2024/03/07 06:23:16;;;;;;;;;;;;;;;5.49;70.45;96403.69;7395089;19;1033;-70
2024/03/07 06:25:50;;;;;;;;;;;;;;;5.40;70.51;96410.78;7396000;19;1648;-70
2024/03/07 06:28:19;;;;;;;;;;;;;;;5.39;70.86;96409.06;7394934;19;1112;-70
2024/03/07 06:30:50;;;;;;;;;;;;;;;5.25;71.51;96401.56;7394820;19;1104;-68
2024/03/07 06:33:19;;;;;;;;;;;;;;;5.34;71.34;96404.84;7394694;19;1084;-72
2024/03/07 06:35:47;;;;;;;;;;;;;;;5.31;71.40;96406.63;7394333;19;1837;-69
2024/03/07 06:38:16;;;;;;;;;;;;;;;5.32;71.39;96404.88;7395110;19;1047;-71
2024/03/07 06:40:45;;;;;;;;;;;;;;;5.38;71.10;96411.69;7395044;19;1012;-70
2024/03/07 06:43:13;;;;;;;;;;;;;;;5.45;71.18;96421.09;7394549;19;1116;-70
2024/03/07 06:45:42;;;;;;;;;;;;;;;5.35;70.87;96416.94;7394367;19;1131;-68
2024/03/07 06:48:14;;;;;;;;;;;;;;;5.27;71.85;96415.34;7395214;19;953;-66
2024/03/07 06:50:44;;;;;;;;;;;;;;;5.24;71.89;96406.78;7394764;19;1020;-66
2024/03/07 06:53:12;;;;;;;;;;;;;;;5.35;71.56;96406.56;7394658;19;981;-65
2024/03/07 06:55:41;;;;;;;;;;;;;;;5.29;72.27;96410.13;7393488;19;1810;-63
2024/03/07 06:58:10;;;;;;;;;;;;;;;5.29;72.14;96402.34;7394603;19;1017;-70
2024/03/07 07:00:40;;;;;;;;;;;;;;;5.27;72.71;96398.94;7394057;19;1116;-69
2024/03/07 07:03:08;;;;;;;;;;;;;;;5.22;72.69;96404.22;7393942;19;903;-74
2024/03/07 07:05:40;;;;;;;;;;;;;;;5.27;72.98;96402.38;7394333;19;1796;-67
2024/03/07 07:08:09;;;;;;;;;;;;;;;5.31;72.53;96400.59;7393898;19;1104;-69
2024/03/07 07:10:40;;;;;;;;;;;;;;;5.33;72.63;96401.41;7392395;19;1042;-67
2024/03/07 07:13:08;;;;;;;;;;;;;;;5.19;73.06;96401.66;7393835;19;1068;-69
2024/03/07 07:15:36;;;;;;;;;;;;;;;5.24;73.14;96406.78;7393693;19;1850;-71
2024/03/07 07:18:07;;;;;;;;;;;;;;;5.19;73.77;96401.66;7391639;19;1053;-67
2024/03/07 07:20:35;;;;;;;;;;;;;;;5.26;74.58;96400.66;7401153;19;1088;-72
2024/03/07 07:23:06;;;;;;;;;;;;;;;5.30;73.57;96404.91;7401093;19;1025;-71
2024/03/07 07:25:35;;;;;;;;;;;;;;;5.31;74.28;96408.38;7400957;19;1389;-68
2024/03/07 07:28:04;;;;;;;;;;;;;;;5.36;74.35;96405.69;7401106;19;892;-66
2024/03/07 07:30:33;;;;;;;;;;;;;;;5.36;74.68;96400.50;7400754;19;1088;-71
2024/03/07 07:33:01;;;;;;;;;;;;;;;5.47;74.63;96408.91;7400625;19;1169;-69
2024/03/07 07:35:31;;;;;;;;;;;;;;;5.45;75.02;96410.69;7400777;19;1830;-71
2024/03/07 07:37:59;;;;;;;;;;;;;;;5.48;75.09;96413.22;7400635;19;963;-70
2024/03/07 07:40:32;;;;;;;;;;;;;;;5.54;75.30;96415.69;7400497;19;1069;-70
2024/03/07 07:43:01;;;;;;;;;;;;;;;5.57;75.78;96417.38;7400592;19;1110;-67
2024/03/07 07:45:32;;;;;;;;;;;;;;;5.49;76.19;96411.47;7400788;19;1011;-68
2024/03/07 07:48:00;;;;;;;;;;;;;;;5.40;77.30;96420.31;7400774;19;1028;-69
2024/03/07 07:50:29;;;;;;;;;;;;;;;5.48;77.99;96423.59;7400223;19;1123;-70
2024/03/07 07:52:58;;;;;;;;;;;;;;;5.60;78.09;96414.72;7400130;19;1029;-70
2024/03/07 07:55:28;;;;;;;;;;;;;;;5.51;78.92;96414.91;7399824;19;1851;-69
2024/03/07 07:57:59;;;;;;;;;;;;;;;5.59;78.69;96419.94;7400345;19;960;-71
2024/03/07 08:00:28;;;;;;;;;;;;;;;5.64;78.58;96420.69;7399787;19;1076;-68
2024/03/07 08:02:58;;;;;;;;;;;;;;;5.60;80.05;96439.81;7399795;19;1052;-67
2024/03/07 08:05:27;;;;;;;;;;;;;;;5.49;79.21;96416.66;7399557;19;1456;-68
2024/03/07 08:07:57;;;;;;;;;;;;;;;5.44;79.53;96434.91;7400062;19;1038;-72
2024/03/07 08:10:28;;;;;;;;;;;;;;;5.41;79.56;96433.25;7397833;19;1147;-69
2024/03/07 08:12:59;;;;;;;;;;;;;;;5.42;80.35;96440.13;7399443;19;1037;-67
2024/03/07 08:15:28;;;;;;;;;;;;;;;5.29;80.78;96439.53;7399244;19;955;-72
2024/03/07 08:17:57;;;;;;;;;;;;;;;5.38;80.57;96448.00;7399629;19;1024;-65
2024/03/07 08:20:27;;;;;;;;;;;;;;;5.33;79.18;96435.16;7399436;19;960;-68
2024/03/07 08:22:57;;;;;;;;;;;;;;;5.33;80.58;96442.94;7399334;19;1848;-71
2024/03/07 08:25:27;;;;;;;;;;;;;;;5.25;80.63;96447.38;7398951;19;1009;-66
2024/03/07 08:28:00;;;;;;;;;;;;;;;5.21;81.20;96453.50;7398966;19;1033;-71
2024/03/07 08:33:25;;;;;;;;;;;;;;;5.15;81.20;96455.31;7398483;19;926;-71
2024/03/07 08:35:55;;;;;;;;;;;;;;;5.11;81.79;96469.22;7398188;19;1862;-69
2024/03/07 08:38:24;;;;;;;;;;;;;;;5.10;81.68;96451.09;7398627;19;1037;-73
2024/03/07 08:40:53;;;;;;;;;;;;;;;5.13;84.27;96459.69;7398515;19;1009;-68
2024/03/07 08:43:24;;;;;;;;;;;;;;;5.18;82.36;96468.25;7398487;19;1029;-63
2024/03/07 08:45:53;;;;;;;;;;;;;;;5.08;82.06;96469.28;7398349;19;1151;-71
2024/03/07 08:48:22;;;;;;;;;;;;;;;5.06;81.12;96471.06;7398182;19;1127;-72
2024/03/07 08:50:51;;;;;;;;;;;;;;;4.96;83.03;96465.16;7398115;19;1041;-68
2024/03/07 08:53:19;;;;;;;;;;;;;;;5.08;82.67;96465.84;7398104;19;1115;-67
2024/03/07 08:55:47;;;;;;;;;;;;;;;5.18;83.62;96468.25;7397818;19;1847;-69
2024/03/07 08:58:16;;;;;;;;;;;;;;;5.19;81.93;96476.88;7398270;19;1867;-71
2024/03/07 09:00:48;;;;;;;;;;;;;;;5.20;81.43;96475.16;7397786;19;1034;-73
2024/03/07 09:03:18;;;;;;;;;;;;;;;5.28;82.52;96478.47;7397744;19;1108;-69
2024/03/07 09:05:47;;;;;;;;;;;;;;;5.44;82.79;96481.63;7398095;19;1022;-67
2024/03/07 09:08:15;;;;;;;;;;;;;;;5.44;82.24;96487.69;7397833;19;1848;-69
2024/03/07 09:10:44;;;;;;;;;;;;;;;5.44;82.02;96482.50;7395794;19;1127;-68
2024/03/07 09:13:12;;;;;;;;;;;;;;;5.36;80.77;96484.34;7397678;19;1859;-71
2024/03/07 09:15:40;;;;;;;;;;;;;;;5.40;81.78;96479.97;7397780;19;1848;-69
2024/03/07 09:18:12;;;;;;;;;;;;;;;5.39;81.89;96486.88;7395636;19;1838;-64
2024/03/07 09:20:41;;;;;;;;;;;;;;;5.43;82.67;96485.97;7397144;19;1084;-69
2024/03/07 09:23:09;;;;;;;;;;;;;;;5.45;82.24;96488.53;7397907;19;1776;-70
2024/03/07 09:25:39;;;;;;;;;;;;;;;5.39;81.35;96488.66;7396986;19;1855;-67
2024/03/07 09:28:08;;;;;;;;;;;;;;;5.44;81.03;96492.88;7396899;19;1073;-68
2024/03/07 09:30:38;;;;;;;;;;;;;;;5.34;79.44;96498.25;7396775;19;1038;-68
2024/03/07 09:33:10;;;;;;;;;;;;;;;5.21;80.99;96501.03;7397221;19;1026;-72
2024/03/07 09:35:41;;;;;;;;;;;;;;;5.13;81.07;96496.00;7396650;19;1032;-67
2024/03/07 09:38:11;;;;;;;;;;;;;;;5.08;81.48;96495.22;7394794;19;1842;-70
2024/03/07 09:40:40;;;;;;;;;;;;;;;5.17;81.79;96495.06;7396510;19;1083;-67
2024/03/07 09:43:10;;;;;;;;;;;;;;;5.09;81.59;96504.69;7395573;19;955;-70
2024/03/07 09:45:39;;;;;;;;;;;;;;;5.12;81.95;96494.28;7396223;19;1085;-66
2024/03/07 09:48:08;;;;;;;;;;;;;;;5.17;80.94;96502.84;7396643;19;1025;-71
2024/03/07 09:50:38;;;;;;;;;;;;;;;5.18;82.46;96501.13;7396101;19;1002;-67
2024/03/07 09:53:09;;;;;;;;;;;;;;;5.25;83.02;96501.84;7396278;19;1821;-68
2024/03/07 09:55:38;;;;;;;;;;;;;;;5.32;82.23;96503.44;7395887;19;1025;-66
2024/03/07 09:58:09;;;;;;;;;;;;;;;5.44;82.29;96503.25;7394716;19;1904;-70
2024/03/07 10:00:40;;;;;;;;;;;;;;;5.56;81.82;96506.50;7395740;19;1056;-69
2024/03/07 10:03:13;;;;;;;;;;;;;;;5.55;82.19;96502.19;7396234;19;937;-67
2024/03/07 10:05:42;;;;;;;;;;;;;;;5.54;81.17;96503.09;7396172;19;1046;-67
2024/03/07 10:08:13;;;;;;;;;;;;;;;5.51;82.40;96503.97;7395391;19;1111;-68
2024/03/07 10:10:42;;;;;;;;;;;;;;;5.43;82.32;96505.88;7394171;19;1100;-65
2024/03/07 10:13:11;;;;;;;;;;;;;;;5.59;82.98;96508.16;7395427;19;1052;-68
2024/03/07 10:15:43;;;;;;;;;;;;;;;5.66;82.54;96502.00;7395298;19;1052;-74
2024/03/07 10:18:13;;;;;;;;;;;;;;;5.64;82.49;96498.56;7393748;19;1846;-66
2024/03/07 10:20:42;;;;;;;;;;;;;;;5.50;81.27;96491.03;7395115;19;1026;-67
2024/03/07 10:23:13;;;;;;;;;;;;;;;5.46;83.27;96497.16;7395056;19;1045;-70
2024/03/07 10:25:43;;;;;;;;;;;;;;;5.42;83.52;96493.78;7395435;19;1058;-70
2024/03/07 10:28:14;;;;;;;;;;;;;;;5.28;84.73;96494.88;7394985;19;1092;-65
2024/03/07 10:30:44;;;;;;;;;;;;;;;5.27;84.21;96494.91;7394732;19;1057;-64
2024/03/07 10:33:14;;;;;;;;;;;;;;;5.26;84.82;96494.03;7394478;19;930;-69
2024/03/07 10:35:42;;;;;;;;;;;;;;;5.27;85.20;96495.75;7394698;19;1116;-65
2024/03/07 10:38:14;;;;;;;;;;;;;;;5.29;84.62;96493.13;7394007;19;1908;-67
2024/03/07 10:40:43;;;;;;;;;;;;;;;5.31;84.71;96491.38;7394491;19;1026;-71
2024/03/07 10:43:14;;;;;;;;;;;;;;;5.24;84.81;96492.38;7394828;19;1965;-69
2024/03/07 10:45:47;;;;;;;;;;;;;;;5.22;84.86;96495.00;7394366;19;1021;-64
2024/03/07 10:48:16;;;;;;;;;;;;;;;5.39;86.00;96491.25;7394782;19;1059;-71
2024/03/07 10:50:53;;;;;;;;;;;;;;;5.40;86.08;96495.53;7394228;19;1176;-72
2024/03/07 10:53:30;;;;;;;;;;;;;;;5.47;85.38;96499.72;7395535;19;1113;-69
2024/03/07 10:56:14;;;;;;;;;;;;;;;5.45;84.93;96491.13;7402299;19;1148;-67
2024/03/07 10:58:45;;;;;;;;;;;;;;;5.37;84.90;96487.81;7398850;19;1849;-67
2024/03/07 11:01:13;;;;;;;;;;;;;;;5.14;85.19;96481.28;7402207;19;1146;-72
2024/03/07 11:03:42;;;;;;;;;;;;;;;5.13;85.77;96482.16;7401713;19;1013;-72
2024/03/07 11:06:11;;;;;;;;;;;;;;;5.14;85.70;96494.25;7402057;19;1014;-66
2024/03/07 11:08:42;;;;;;;;;;;;;;;5.10;85.81;96483.09;7401794;19;1842;-70
2024/03/07 11:11:11;;;;;;;;;;;;;;;5.09;86.37;96489.13;7401411;19;1094;-70
2024/03/07 11:13:40;;;;;;;;;;;;;;;5.09;86.51;96489.13;7401841;19;1059;-69
2024/03/07 11:16:10;;;;;;;;;;;;;;;5.14;86.45;96483.88;7401530;19;1974;-67
2024/03/07 11:18:38;;;;;;;;;;;;;;;5.16;87.01;96488.19;7398569;19;1897;-70
2024/03/07 11:21:08;;;;;;;;;;;;;;;5.29;86.98;96482.75;7401538;19;1043;-71
2024/03/07 11:23:38;;;;;;;;;;;;;;;5.40;86.92;96483.44;7401792;19;1758;-71
2024/03/07 11:26:10;;;;;;;;;;;;;;;5.46;85.89;96477.28;7401407;19;1031;-71
2024/03/07 11:28:40;;;;;;;;;;;;;;;5.37;85.56;96486.09;7400847;19;985;-69
2024/03/07 11:31:12;;;;;;;;;;;;;;;5.35;86.63;96476.59;7401529;19;979;-72
2024/03/07 11:33:43;;;;;;;;;;;;;;;5.38;86.15;96474.81;7400798;19;1060;-68
2024/03/07 11:36:12;;;;;;;;;;;;;;;5.41;87.23;96476.50;7400714;19;1041;-65
2024/03/07 11:38:41;;;;;;;;;;;;;;;5.47;86.71;96481.56;7398140;19;1850;-65
2024/03/07 11:41:13;;;;;;;;;;;;;;;5.37;86.79;96474.84;7400928;19;1593;-67
2024/03/07 11:43:42;;;;;;;;;;;;;;;5.39;86.38;96473.91;7400421;19;1041;-67
2024/03/07 11:46:16;;;;;;;;;;;;;;;5.49;86.45;96477.22;7400812;19;982;-68
2024/03/07 11:48:45;;;;;;;;;;;;;;;5.52;86.41;96474.56;7400265;19;1025;-70
2024/03/07 11:51:15;;;;;;;;;;;;;;;5.58;84.87;96476.19;7400178;19;1108;-70
2024/03/07 11:53:43;;;;;;;;;;;;;;;5.69;85.44;96473.38;7400866;19;1678;-69
2024/03/07 11:56:16;;;;;;;;;;;;;;;5.61;84.55;96480.44;7400430;19;1069;-68
2024/03/07 11:58:53;;;;;;;;;;;;;;;5.43;85.11;96477.31;7397669;19;1850;-69
2024/03/07 12:01:25;;;;;;;;;;;;;;;5.51;85.53;96475.44;7399729;19;1096;-71
2024/03/07 12:03:53;;;;;;;;;;;;;;;5.60;84.78;96471.81;7399635;19;1025;-68
2024/03/07 12:06:22;;;;;;;;;;;;;;;5.53;84.21;96476.28;7398950;19;1131;-69
2024/03/07 12:08:52;;;;;;;;;;;;;;;5.56;84.67;96477.94;7399437;19;1621;-70
2024/03/07 12:11:25;;;;;;;;;;;;;;;5.56;85.37;96473.63;7399499;19;1048;-67
2024/03/07 12:13:54;;;;;;;;;;;;;;;5.66;85.69;96476.88;7399355;19;1021;-71
2024/03/07 12:16:24;;;;;;;;;;;;;;;5.69;85.54;96473.38;7399342;19;1203;-68
2024/03/07 12:18:54;;;;;;;;;;;;;;;5.67;84.70;96476.00;7397467;19;1841;-68
2024/03/07 12:21:22;;;;;;;;;;;;;;;5.72;84.79;96469.88;7399602;19;1797;-67
2024/03/07 12:23:51;;;;;;;;;;;;;;;5.78;84.36;96474.94;7399031;19;1120;-71
2024/03/07 12:26:25;;;;;;;;;;;;;;;5.74;84.78;96473.28;7399374;19;1015;-72
2024/03/07 12:28:57;;;;;;;;;;;;;;;5.78;84.18;96470.59;7398901;19;1030;-63
2024/03/07 12:31:25;;;;;;;;;;;;;;;5.73;84.77;96474.16;7398755;19;1061;-64
2024/03/07 12:33:54;;;;;;;;;;;;;;;5.79;85.52;96474.06;7399224;19;1024;-71
2024/03/07 12:36:32;;;;;;;;;;;;;;;5.74;85.45;96468.94;7396715;19;949;-72
2024/03/07 12:39:09;;;;;;;;;;;;;;;5.74;84.91;96460.28;7396642;19;1860;-68
2024/03/07 12:41:37;;;;;;;;;;;;;;;5.79;85.83;96461.94;7398873;19;961;-70
2024/03/07 12:44:13;;;;;;;;;;;;;;;5.90;85.21;96464.28;7398410;19;1116;-68
2024/03/07 12:46:42;;;;;;;;;;;;;;;5.99;84.63;96467.59;7398265;19;1029;-67
2024/03/07 12:49:11;;;;;;;;;;;;;;;5.98;83.36;96466.75;7398718;19;1036;-67
2024/03/07 12:51:41;;;;;;;;;;;;;;;6.04;83.17;96466.66;7398081;19;1175;-70
2024/03/07 12:54:10;;;;;;;;;;;;;;;5.83;81.85;96465.31;7397954;19;1041;-72
2024/03/07 12:56:39;;;;;;;;;;;;;;;5.78;81.75;96462.81;7398274;19;1920;-72
2024/03/07 12:59:11;;;;;;;;;;;;;;;5.86;81.59;96459.19;7396392;19;1844;-68
2024/03/07 13:01:44;;;;;;;;;;;;;;;5.91;81.48;96458.25;7397759;19;1021;-69
2024/03/07 13:04:13;;;;;;;;;;;;;;;6.09;81.89;96461.34;7397714;19;1100;-69
2024/03/07 13:06:43;;;;;;;;;;;;;;;6.06;81.17;96459.66;7398104;19;1034;-75
2024/03/07 13:09:11;;;;;;;;;;;;;;;6.04;81.12;96460.59;7397325;19;1148;-63
2024/03/07 13:11:40;;;;;;;;;;;;;;;6.03;80.51;96459.72;7397486;19;1065;-67
2024/03/07 13:14:12;;;;;;;;;;;;;;;6.10;81.04;96451.81;7397434;19;1018;-71
2024/03/07 13:16:42;;;;;;;;;;;;;;;6.11;80.99;96454.38;7395196;19;970;-65
2024/03/07 13:19:11;;;;;;;;;;;;;;;6.09;80.73;96458.75;7395472;19;1842;-64
2024/03/07 13:21:40;;;;;;;;;;;;;;;6.01;79.97;96456.28;7397647;19;949;-68
2024/03/07 13:24:09;;;;;;;;;;;;;;;5.87;79.81;96456.56;7397405;19;1940;-69
2024/03/07 13:26:38;;;;;;;;;;;;;;;5.91;80.94;96455.63;7397036;19;1025;-70
2024/03/07 13:29:06;;;;;;;;;;;;;;;5.97;81.97;96449.47;7397353;19;1935;-70
2024/03/07 13:31:39;;;;;;;;;;;;;;;6.02;81.14;96449.38;7397259;19;1791;-71